createdAt,value
2022-11-13T00:01:35.376Z,6.49
2022-11-13T00:03:59.243Z,6.45
2022-11-13T00:06:21.276Z,6.39
2022-11-13T00:08:44.577Z,6.28
2022-11-13T00:11:09.434Z,6.16
2022-11-13T00:13:31.327Z,6.10
2022-11-13T00:15:58.245Z,6.06
2022-11-13T00:18:19.910Z,5.98
2022-11-13T00:20:41.683Z,5.99
2022-11-13T00:23:03.286Z,5.95
2022-11-13T00:25:26.487Z,5.93
2022-11-13T00:27:48.128Z,5.89
2022-11-13T00:30:13.772Z,5.88
2022-11-13T00:32:40.165Z,5.83
2022-11-13T00:35:01.756Z,5.87
2022-11-13T00:37:23.320Z,5.86
2022-11-13T00:39:45.110Z,5.88
2022-11-13T00:42:08.216Z,5.89
2022-11-13T00:44:29.859Z,5.87
2022-11-13T00:46:51.330Z,5.86
2022-11-13T00:49:13.108Z,5.84
2022-11-13T00:51:34.514Z,5.83
2022-11-13T00:53:56.232Z,5.87
2022-11-13T00:56:17.822Z,5.88
2022-11-13T00:58:40.720Z,5.83
2022-11-13T01:01:06.686Z,5.84
2022-11-13T01:03:28.423Z,5.79
2022-11-13T01:05:50.213Z,5.71
2022-11-13T01:08:13.350Z,5.70
2022-11-13T01:10:42.321Z,5.73
2022-11-13T01:13:04.211Z,5.76
2022-11-13T01:15:27.736Z,5.79
2022-11-13T01:17:49.502Z,5.75
2022-11-13T01:20:12.191Z,5.71
2022-11-13T01:22:33.666Z,5.68
2022-11-13T01:24:55.118Z,5.68
2022-11-13T01:27:16.574Z,5.70
2022-11-13T01:29:38.931Z,5.67
2022-11-13T01:32:01.796Z,5.66
2022-11-13T01:34:23.879Z,5.64
2022-11-13T01:36:45.779Z,5.63
2022-11-13T01:39:07.105Z,5.68
2022-11-13T01:41:31.905Z,5.70
2022-11-13T01:43:54.510Z,5.69
2022-11-13T01:46:22.718Z,5.73
2022-11-13T01:48:48.473Z,5.77
2022-11-13T01:51:13.140Z,5.77
2022-11-13T01:53:35.093Z,5.78
2022-11-13T01:55:57.166Z,5.76
2022-11-13T01:58:18.866Z,5.73
2022-11-13T02:00:40.393Z,5.70
2022-11-13T02:03:02.741Z,5.68
2022-11-13T02:05:26.250Z,5.66
2022-11-13T02:07:49.332Z,5.61
2022-11-13T02:10:10.901Z,5.59
2022-11-13T02:12:35.675Z,5.57
2022-11-13T02:14:59.359Z,5.57
2022-11-13T02:17:24.353Z,5.53
2022-11-13T02:19:49.663Z,5.50
2022-11-13T02:22:18.067Z,5.52
2022-11-13T02:24:45.237Z,5.50
2022-11-13T02:27:09.841Z,5.48
2022-11-13T02:29:31.976Z,5.44
2022-11-13T02:31:53.806Z,5.44
2022-11-13T02:34:16.545Z,5.40
2022-11-13T02:36:38.294Z,5.40
2022-11-13T02:39:03.061Z,5.39
2022-11-13T02:41:26.583Z,5.38
2022-11-13T02:43:48.653Z,5.38
2022-11-13T02:46:10.301Z,5.36
2022-11-13T02:48:32.137Z,5.32
2022-11-13T02:50:54.423Z,5.29
2022-11-13T02:53:16.592Z,5.31
2022-11-13T02:55:38.744Z,5.29
2022-11-13T02:58:02.195Z,5.29
2022-11-13T03:00:24.638Z,5.27
2022-11-13T03:02:46.909Z,5.27
2022-11-13T03:05:12.550Z,5.23
2022-11-13T03:07:35.801Z,5.22
2022-11-13T03:09:58.064Z,5.16
2022-11-13T03:12:20.332Z,5.13
2022-11-13T03:14:43.878Z,5.14
2022-11-13T03:17:05.636Z,5.10
2022-11-13T03:19:28.228Z,5.08
2022-11-13T03:21:50.152Z,5.06
2022-11-13T03:24:12.209Z,5.06
2022-11-13T03:26:34.732Z,5.02
2022-11-13T03:28:57.415Z,5.03
2022-11-13T03:31:23.434Z,5.01
2022-11-13T03:33:45.752Z,5.02
2022-11-13T03:36:08.166Z,4.99
2022-11-13T03:38:31.004Z,4.98
2022-11-13T03:40:53.645Z,4.96
2022-11-13T03:43:16.486Z,4.96
2022-11-13T03:45:38.866Z,4.91
2022-11-13T03:48:01.948Z,4.86
2022-11-13T03:50:23.851Z,4.78
2022-11-13T03:52:45.913Z,4.75
2022-11-13T03:55:08.491Z,4.71
2022-11-13T03:57:32.114Z,4.68
2022-11-13T03:59:53.665Z,4.64
2022-11-13T04:02:15.234Z,4.61
2022-11-13T04:04:38.095Z,4.53
2022-11-13T04:06:59.839Z,4.47
2022-11-13T04:09:21.842Z,4.42
2022-11-13T04:11:43.478Z,4.40
2022-11-13T04:14:05.214Z,4.35
2022-11-13T04:16:26.775Z,4.33
2022-11-13T04:18:48.287Z,4.28
2022-11-13T04:21:11.496Z,4.29
2022-11-13T04:23:33.133Z,4.30
2022-11-13T04:25:54.651Z,4.30
2022-11-13T04:28:16.526Z,4.31
2022-11-13T04:30:38.485Z,4.29
2022-11-13T04:33:00.002Z,4.31
2022-11-13T04:35:21.464Z,4.32
2022-11-13T04:37:44.280Z,4.33
2022-11-13T04:40:06.942Z,4.31
2022-11-13T04:42:46.355Z,4.30
2022-11-13T04:45:08.734Z,4.23
2022-11-13T04:47:30.055Z,4.16
2022-11-13T04:49:51.652Z,4.12
2022-11-13T04:52:13.428Z,4.07
2022-11-13T04:54:36.718Z,4.05
2022-11-13T04:56:58.149Z,4.01
2022-11-13T04:59:19.691Z,3.97
2022-11-13T05:01:41.556Z,3.97
2022-11-13T05:04:03.522Z,3.99
2022-11-13T05:06:25.321Z,3.97
2022-11-13T05:08:47.512Z,3.96
2022-11-13T05:11:10.374Z,3.97
2022-11-13T05:13:33.132Z,3.93
2022-11-13T05:16:01.637Z,3.87
2022-11-13T05:18:26.387Z,3.87
2022-11-13T05:20:48.596Z,3.82
2022-11-13T05:23:10.028Z,3.80
2022-11-13T05:25:32.287Z,3.76
2022-11-13T05:27:55.690Z,3.72
2022-11-13T05:30:17.850Z,3.71
2022-11-13T05:32:39.571Z,3.68
2022-11-13T05:35:01.091Z,3.66
2022-11-13T05:37:22.900Z,3.60
2022-11-13T05:39:45.159Z,3.59
2022-11-13T05:42:07.024Z,3.61
2022-11-13T05:44:29.721Z,3.60
2022-11-13T05:46:51.064Z,3.60
2022-11-13T05:49:12.516Z,3.56
2022-11-13T05:51:35.337Z,3.54
2022-11-13T05:53:57.350Z,3.52
2022-11-13T05:56:20.242Z,3.50
2022-11-13T05:58:42.964Z,3.54
2022-11-13T06:01:11.756Z,3.58
2022-11-13T06:03:33.132Z,3.59
2022-11-13T06:05:54.925Z,3.59
2022-11-13T06:08:18.580Z,3.55
2022-11-13T06:10:40.026Z,3.52
2022-11-13T06:13:01.635Z,3.45
2022-11-13T06:15:22.958Z,3.38
2022-11-13T06:17:47.864Z,3.36
2022-11-13T06:20:10.535Z,3.36
2022-11-13T06:22:31.951Z,3.32
2022-11-13T06:24:53.348Z,3.31
2022-11-13T06:27:14.863Z,3.33
2022-11-13T06:29:36.396Z,3.34
2022-11-13T06:31:58.455Z,3.35
2022-11-13T06:34:21.556Z,3.37
2022-11-13T06:36:43.168Z,3.37
2022-11-13T06:39:07.493Z,3.39
2022-11-13T06:41:31.363Z,3.42
2022-11-13T06:43:53.061Z,3.45
2022-11-13T06:46:15.925Z,3.45
2022-11-13T06:48:37.539Z,3.47
2022-11-13T06:51:03.542Z,3.50
2022-11-13T06:53:25.292Z,3.47
2022-11-13T06:55:49.630Z,3.48
2022-11-13T06:58:11.351Z,3.50
2022-11-13T07:00:36.674Z,3.50
2022-11-13T07:02:59.744Z,3.51
2022-11-13T07:05:21.138Z,3.53
2022-11-13T07:07:44.748Z,3.55
2022-11-13T07:10:06.990Z,3.57
2022-11-13T07:12:29.918Z,3.61
2022-11-13T07:14:51.636Z,3.62
2022-11-13T07:17:14.571Z,3.60
2022-11-13T07:19:36.235Z,3.59
2022-11-13T07:21:57.685Z,3.56
2022-11-13T07:24:20.790Z,3.56
2022-11-13T07:26:42.322Z,3.59
2022-11-13T07:29:04.174Z,3.71
2022-11-13T07:31:25.856Z,3.71
2022-11-13T07:33:49.138Z,3.72
2022-11-13T07:36:11.654Z,3.71
2022-11-13T07:38:33.061Z,3.70
2022-11-13T07:40:56.204Z,3.74
2022-11-13T07:43:17.645Z,3.75
2022-11-13T07:45:39.323Z,3.80
2022-11-13T07:48:01.442Z,3.92
2022-11-13T07:50:23.214Z,4.00
2022-11-13T07:52:45.452Z,4.10
2022-11-13T07:55:08.243Z,4.29
2022-11-13T07:57:31.273Z,4.43
2022-11-13T07:59:52.699Z,4.61
2022-11-13T08:02:16.364Z,4.79
2022-11-13T08:04:38.056Z,5.05
2022-11-13T08:06:59.848Z,5.24
2022-11-13T08:09:22.297Z,5.46
2022-11-13T08:11:44.227Z,5.51
2022-11-13T08:14:07.735Z,5.54
2022-11-13T08:16:29.677Z,5.53
2022-11-13T08:18:51.630Z,5.56
2022-11-13T08:21:15.156Z,5.57
2022-11-13T08:23:36.693Z,5.52
2022-11-13T08:25:58.763Z,5.46
2022-11-13T08:28:20.497Z,5.35
2022-11-13T08:30:45.697Z,5.33
2022-11-13T08:33:07.315Z,5.32
2022-11-13T08:35:29.823Z,5.41
2022-11-13T08:37:51.697Z,5.49
2022-11-13T08:40:13.658Z,5.49
2022-11-13T08:42:35.185Z,5.52
2022-11-13T08:44:56.710Z,5.52
2022-11-13T08:47:19.857Z,5.57
2022-11-13T08:49:42.588Z,5.64
2022-11-13T08:52:04.298Z,5.78
2022-11-13T08:54:26.567Z,5.85
2022-11-13T08:56:53.033Z,5.87
2022-11-13T08:59:17.682Z,5.83
2022-11-13T09:01:39.134Z,5.86
2022-11-13T09:04:02.841Z,5.94
2022-11-13T09:06:24.669Z,5.94
2022-11-13T09:08:46.175Z,5.99
2022-11-13T09:11:08.014Z,6.02
2022-11-13T09:13:29.923Z,6.03
2022-11-13T09:15:51.388Z,6.05
2022-11-13T09:18:12.984Z,6.13
2022-11-13T09:20:36.356Z,6.23
2022-11-13T09:23:00.015Z,6.31
2022-11-13T09:25:21.783Z,6.34
2022-11-13T09:27:43.324Z,6.38
2022-11-13T09:30:05.814Z,6.42
2022-11-13T09:32:27.423Z,6.44
2022-11-13T09:34:49.469Z,6.43
2022-11-13T09:37:12.341Z,6.40
2022-11-13T09:39:34.342Z,6.48
2022-11-13T09:41:59.818Z,6.56
2022-11-13T09:44:25.716Z,6.63
2022-11-13T09:46:50.410Z,6.65
2022-11-13T09:49:17.500Z,6.69
2022-11-13T09:51:40.028Z,6.75
2022-11-13T09:54:06.603Z,6.83
2022-11-13T09:56:30.563Z,6.88
2022-11-13T09:58:59.183Z,6.95
2022-11-13T10:01:27.686Z,7.04
2022-11-13T10:04:01.474Z,7.14
2022-11-13T10:06:28.700Z,7.15
2022-11-13T10:08:57.210Z,7.19
2022-11-13T10:11:28.014Z,7.26
2022-11-13T10:13:51.928Z,7.29
2022-11-13T10:16:21.449Z,7.40
2022-11-13T10:18:44.400Z,7.47
2022-11-13T10:21:14.136Z,7.48
2022-11-13T10:23:38.194Z,7.52
2022-11-13T10:26:05.365Z,7.63
2022-11-13T10:28:49.569Z,7.72
2022-11-13T10:31:11.478Z,7.80
2022-11-13T10:33:33.122Z,7.87
2022-11-13T10:35:58.736Z,7.85
2022-11-13T10:38:26.923Z,7.86
2022-11-13T10:40:49.177Z,8.07
2022-11-13T10:43:15.979Z,8.20
2022-11-13T10:45:40.089Z,8.36
2022-11-13T10:48:04.579Z,8.44
2022-11-13T10:50:28.684Z,8.42
2022-11-13T10:52:51.582Z,8.46
2022-11-13T10:55:17.664Z,8.44
2022-11-13T10:57:39.602Z,8.46
2022-11-13T11:00:01.602Z,8.50
2022-11-13T11:02:25.900Z,8.44
2022-11-13T11:04:48.624Z,8.41
2022-11-13T11:07:20.890Z,8.50
2022-11-13T11:09:44.421Z,8.54
2022-11-13T11:12:18.904Z,8.66
2022-11-13T11:14:45.262Z,8.70
2022-11-13T11:17:07.440Z,8.73
2022-11-13T11:19:32.254Z,8.76
2022-11-13T11:21:55.979Z,8.78
2022-11-13T11:24:21.430Z,8.83
2022-11-13T11:26:47.274Z,8.87
2022-11-13T11:29:15.950Z,8.96
2022-11-13T11:31:43.034Z,8.99
2022-11-13T11:34:14.151Z,9.06
2022-11-13T11:36:43.000Z,9.11
2022-11-13T11:39:13.102Z,9.18
2022-11-13T11:41:39.754Z,9.21
2022-11-13T11:44:06.342Z,9.26
2022-11-13T11:46:28.490Z,9.30
2022-11-13T11:48:51.061Z,9.36
2022-11-13T11:51:22.795Z,9.43
2022-11-13T11:53:54.083Z,9.47
2022-11-13T11:56:23.572Z,9.54
2022-11-13T11:59:05.696Z,9.60
2022-11-13T12:01:35.014Z,9.63
2022-11-13T12:04:08.205Z,9.68
2022-11-13T12:06:40.889Z,9.71
2022-11-13T12:09:09.510Z,9.73
2022-11-13T12:11:33.388Z,9.67
2022-11-13T12:14:03.540Z,9.67
2022-11-13T12:16:31.223Z,9.64
2022-11-13T12:18:57.092Z,9.66
2022-11-13T12:21:23.557Z,9.71
2022-11-13T12:23:58.008Z,9.80
2022-11-13T12:26:25.436Z,9.85
2022-11-13T12:28:51.159Z,9.92
2022-11-13T12:31:20.273Z,10.02
2022-11-13T12:33:49.513Z,10.09
2022-11-13T12:36:12.719Z,10.13
2022-11-13T12:38:40.091Z,10.14
2022-11-13T12:41:09.073Z,10.16
2022-11-13T12:43:43.260Z,10.14
2022-11-13T12:46:08.817Z,10.16
2022-11-13T12:48:35.029Z,10.17
2022-11-13T12:51:01.204Z,10.17
2022-11-13T12:53:26.985Z,10.20
2022-11-13T12:55:59.990Z,10.28
2022-11-13T12:58:25.501Z,10.32
2022-11-13T13:00:55.616Z,10.39
2022-11-13T13:03:31.868Z,10.44
2022-11-13T13:06:03.848Z,10.51
2022-11-13T13:08:48.548Z,10.60
2022-11-13T13:11:19.386Z,10.64
2022-11-13T13:13:46.464Z,10.66
2022-11-13T13:16:09.938Z,10.70
2022-11-13T13:18:34.057Z,10.75
2022-11-13T13:21:07.412Z,10.79
2022-11-13T13:23:32.081Z,10.83
2022-11-13T13:26:03.621Z,10.85
2022-11-13T13:28:25.573Z,10.91
2022-11-13T13:30:52.787Z,10.94
2022-11-13T13:33:22.062Z,10.99
2022-11-13T13:35:56.156Z,11.00
2022-11-13T13:38:25.210Z,11.02
2022-11-13T13:41:00.531Z,11.05
2022-11-13T13:43:35.639Z,11.02
2022-11-13T13:46:03.253Z,11.04
2022-11-13T13:48:28.437Z,11.05
2022-11-13T13:50:52.064Z,11.04
2022-11-13T13:53:17.162Z,11.04
2022-11-13T13:55:40.686Z,11.07
2022-11-13T13:58:05.726Z,11.08
2022-11-13T14:00:27.676Z,11.10
2022-11-13T14:02:50.436Z,11.10
2022-11-13T14:05:27.301Z,11.08
2022-11-13T14:07:49.177Z,11.08
2022-11-13T14:10:16.881Z,11.08
2022-11-13T14:12:42.365Z,11.09
2022-11-13T14:15:06.618Z,11.06
2022-11-13T14:17:29.160Z,11.06
2022-11-13T14:19:51.399Z,11.05
2022-11-13T14:22:14.378Z,11.07
2022-11-13T14:24:47.937Z,11.09
2022-11-13T14:27:12.018Z,11.11
2022-11-13T14:29:37.165Z,11.07
2022-11-13T14:32:04.452Z,11.05
2022-11-13T14:34:25.864Z,11.04
2022-11-13T14:36:48.374Z,11.03
2022-11-13T14:39:20.772Z,11.02
2022-11-13T14:41:47.558Z,11.03
2022-11-13T14:44:11.785Z,11.03
2022-11-13T14:46:37.020Z,11.02
2022-11-13T14:48:59.126Z,10.99
2022-11-13T14:51:24.969Z,10.95
2022-11-13T14:53:58.493Z,10.97
2022-11-13T14:56:33.432Z,10.96
2022-11-13T14:58:55.042Z,10.91
2022-11-13T15:01:18.140Z,10.91
2022-11-13T15:03:39.769Z,10.88
2022-11-13T15:06:01.317Z,10.87
2022-11-13T15:08:22.953Z,10.86
2022-11-13T15:10:44.953Z,10.84
2022-11-13T15:13:12.852Z,10.83
2022-11-13T15:15:34.718Z,10.81
2022-11-13T15:17:56.848Z,10.81
2022-11-13T15:20:22.384Z,10.80
2022-11-13T15:22:44.122Z,10.78
2022-11-13T15:25:10.382Z,10.76
2022-11-13T15:27:32.096Z,10.74
2022-11-13T15:29:54.606Z,10.70
2022-11-13T15:32:16.622Z,10.65
2022-11-13T15:34:38.203Z,10.60
2022-11-13T15:36:59.897Z,10.56
2022-11-13T15:39:24.016Z,10.55
2022-11-13T15:41:47.146Z,10.53
2022-11-13T15:44:13.527Z,10.51
2022-11-13T15:46:36.647Z,10.46
2022-11-13T15:48:58.365Z,10.44
2022-11-13T15:51:23.125Z,10.37
2022-11-13T15:53:45.556Z,10.29
2022-11-13T15:56:07.974Z,10.25
2022-11-13T15:58:33.492Z,10.22
2022-11-13T16:00:56.357Z,10.17
2022-11-13T16:03:19.276Z,10.11
2022-11-13T16:05:40.759Z,10.07
2022-11-13T16:08:02.571Z,10.03
2022-11-13T16:10:25.821Z,9.97
2022-11-13T16:12:47.597Z,9.90
2022-11-13T16:15:10.812Z,9.82
2022-11-13T16:17:34.732Z,9.76
2022-11-13T16:19:57.976Z,9.73
2022-11-13T16:22:21.840Z,9.68
2022-11-13T16:24:44.064Z,9.63
2022-11-13T16:27:06.306Z,9.60
2022-11-13T16:29:28.354Z,9.56
2022-11-13T16:31:50.190Z,9.47
2022-11-13T16:34:11.639Z,9.38
2022-11-13T16:36:34.845Z,9.34
2022-11-13T16:38:56.658Z,9.30
2022-11-13T16:41:20.281Z,9.26
2022-11-13T16:43:42.111Z,9.22
2022-11-13T16:46:03.938Z,9.18
2022-11-13T16:48:25.440Z,9.14
2022-11-13T16:50:47.096Z,9.11
2022-11-13T16:53:10.429Z,9.05
2022-11-13T16:55:32.081Z,8.99
2022-11-13T16:57:53.574Z,8.94
2022-11-13T17:00:17.391Z,8.90
2022-11-13T17:02:39.678Z,8.89
2022-11-13T17:05:01.357Z,8.86
2022-11-13T17:07:23.319Z,8.82
2022-11-13T17:09:55.110Z,8.80
2022-11-13T17:12:25.710Z,8.75
2022-11-13T17:14:47.403Z,8.71
2022-11-13T17:17:13.126Z,8.66
2022-11-13T17:19:34.860Z,8.62
2022-11-13T17:21:56.625Z,8.57
2022-11-13T17:24:19.483Z,8.51
2022-11-13T17:26:42.247Z,8.46
2022-11-13T17:29:05.685Z,8.39
2022-11-13T17:31:27.856Z,8.34
2022-11-13T17:33:49.607Z,8.28
2022-11-13T17:36:12.110Z,8.27
2022-11-13T17:38:33.985Z,8.25
2022-11-13T17:40:55.750Z,8.12
2022-11-13T17:43:18.905Z,8.08
2022-11-13T17:45:40.692Z,8.07
2022-11-13T17:48:02.514Z,8.06
2022-11-13T17:50:24.279Z,8.02
2022-11-13T17:52:45.811Z,7.99
2022-11-13T17:55:10.752Z,7.93
2022-11-13T17:57:33.382Z,7.90
2022-11-13T17:59:56.561Z,7.88
2022-11-13T18:02:18.237Z,7.82
2022-11-13T18:04:40.115Z,7.79
2022-11-13T18:07:01.921Z,7.74
2022-11-13T18:09:23.331Z,7.72
2022-11-13T18:11:45.176Z,7.71
2022-11-13T18:14:07.179Z,7.69
2022-11-13T18:16:33.925Z,7.64
2022-11-13T18:18:57.904Z,7.54
2022-11-13T18:21:23.483Z,7.48
2022-11-13T18:23:45.674Z,7.46
2022-11-13T18:26:09.742Z,7.47
2022-11-13T18:28:31.418Z,7.48
2022-11-13T18:30:56.586Z,7.45
2022-11-13T18:33:20.174Z,7.45
2022-11-13T18:35:42.327Z,7.46
2022-11-13T18:38:04.117Z,7.44
2022-11-13T18:40:26.039Z,7.43
2022-11-13T18:42:47.979Z,7.40
2022-11-13T18:45:11.731Z,7.38
2022-11-13T18:47:35.534Z,7.37
2022-11-13T18:49:58.813Z,7.35
2022-11-13T18:52:20.596Z,7.33
2022-11-13T18:54:42.257Z,7.32
2022-11-13T18:57:04.152Z,7.28
2022-11-13T18:59:25.666Z,7.27
2022-11-13T19:01:47.435Z,7.24
2022-11-13T19:04:25.683Z,7.21
2022-11-13T19:06:49.306Z,7.16
2022-11-13T19:09:13.598Z,7.12
2022-11-13T19:11:35.636Z,7.09
2022-11-13T19:13:57.682Z,7.09
2022-11-13T19:16:21.314Z,7.04
2022-11-13T19:18:44.121Z,7.01
2022-11-13T19:21:07.127Z,7.01
2022-11-13T19:23:30.066Z,7.02
2022-11-13T19:25:51.671Z,7.01
2022-11-13T19:28:13.313Z,6.99
2022-11-13T19:30:35.006Z,6.98
2022-11-13T19:32:56.971Z,6.95
2022-11-13T19:35:18.873Z,6.90
2022-11-13T19:37:40.861Z,6.82
2022-11-13T19:40:04.353Z,6.72
2022-11-13T19:42:26.048Z,6.63
2022-11-13T19:44:48.493Z,6.55
2022-11-13T19:47:10.315Z,6.53
2022-11-13T19:49:31.960Z,6.50
2022-11-13T19:51:54.746Z,6.44
2022-11-13T19:54:17.010Z,6.43
2022-11-13T19:56:40.028Z,6.42
2022-11-13T19:59:01.938Z,6.40
2022-11-13T20:01:25.822Z,6.37
2022-11-13T20:03:48.475Z,6.33
2022-11-13T20:06:11.831Z,6.32
2022-11-13T20:08:34.954Z,6.33
2022-11-13T20:11:02.132Z,6.30
2022-11-13T20:13:25.325Z,6.28
2022-11-13T20:15:54.102Z,6.27
2022-11-13T20:18:16.883Z,6.27
2022-11-13T20:20:38.876Z,6.29
2022-11-13T20:23:03.645Z,6.30
2022-11-13T20:25:25.267Z,6.31
2022-11-13T20:27:47.742Z,6.28
2022-11-13T20:30:13.011Z,6.24
2022-11-13T20:32:37.650Z,6.21
2022-11-13T20:34:59.536Z,6.17
2022-11-13T20:37:21.197Z,6.16
2022-11-13T20:39:42.875Z,6.14
2022-11-13T20:42:05.107Z,6.13
2022-11-13T20:44:27.574Z,6.15
2022-11-13T20:46:50.395Z,6.13
2022-11-13T20:49:13.348Z,6.10
2022-11-13T20:51:35.757Z,6.02
2022-11-13T20:53:57.811Z,5.99
2022-11-13T20:56:21.639Z,5.91
2022-11-13T20:58:44.298Z,5.84
2022-11-13T21:01:08.210Z,5.78
2022-11-13T21:03:31.698Z,5.76
2022-11-13T21:05:53.742Z,5.68
2022-11-13T21:08:15.816Z,5.68
2022-11-13T21:10:37.428Z,5.70
2022-11-13T21:12:59.376Z,5.72
2022-11-13T21:15:21.711Z,5.75
2022-11-13T21:17:43.794Z,5.75
2022-11-13T21:20:08.497Z,5.72
2022-11-13T21:22:30.136Z,5.70
2022-11-13T21:24:51.727Z,5.69
2022-11-13T21:27:13.571Z,5.70
2022-11-13T21:29:36.590Z,5.68
2022-11-13T21:31:58.758Z,5.67
2022-11-13T21:34:21.842Z,5.67
2022-11-13T21:36:45.307Z,5.66
2022-11-13T21:39:07.159Z,5.65
2022-11-13T21:41:29.932Z,5.64
2022-11-13T21:43:53.261Z,5.63
2022-11-13T21:46:15.035Z,5.65
2022-11-13T21:48:37.310Z,5.64
2022-11-13T21:50:59.563Z,5.60
2022-11-13T21:53:22.907Z,5.50
2022-11-13T21:55:50.123Z,5.42
2022-11-13T21:58:11.869Z,5.36
2022-11-13T22:00:34.195Z,5.32
2022-11-13T22:02:55.822Z,5.29
2022-11-13T22:05:17.659Z,5.27
2022-11-13T22:07:39.139Z,5.25
2022-11-13T22:10:07.926Z,5.25
2022-11-13T22:12:31.061Z,5.25
2022-11-13T22:14:52.566Z,5.28
2022-11-13T22:17:14.531Z,5.31
2022-11-13T22:19:36.682Z,5.30
2022-11-13T22:21:58.563Z,5.30
2022-11-13T22:24:20.487Z,5.33
2022-11-13T22:26:45.241Z,5.24
2022-11-13T22:29:07.346Z,5.19
2022-11-13T22:31:30.346Z,5.09
2022-11-13T22:33:55.158Z,5.01
2022-11-13T22:36:19.656Z,4.95
2022-11-13T22:38:41.186Z,4.93
2022-11-13T22:41:04.306Z,4.96
2022-11-13T22:43:27.428Z,5.01
2022-11-13T22:45:48.789Z,5.05
2022-11-13T22:48:11.568Z,5.08
2022-11-13T22:50:35.903Z,5.15
2022-11-13T22:52:57.613Z,5.19
2022-11-13T22:55:19.523Z,5.25
2022-11-13T22:57:40.995Z,5.28
2022-11-13T23:00:09.209Z,5.27
2022-11-13T23:02:30.888Z,5.30
2022-11-13T23:04:52.528Z,5.33
2022-11-13T23:07:14.152Z,5.37
2022-11-13T23:09:35.929Z,5.40
2022-11-13T23:11:57.671Z,5.45
2022-11-13T23:14:19.071Z,5.48
2022-11-13T23:16:43.167Z,5.55
2022-11-13T23:19:05.481Z,5.54
2022-11-13T23:21:27.767Z,5.57
2022-11-13T23:23:49.456Z,5.60
2022-11-13T23:26:12.117Z,5.63
2022-11-13T23:28:33.877Z,5.66
2022-11-13T23:30:55.724Z,5.66
2022-11-13T23:33:18.966Z,5.66
2022-11-13T23:35:40.870Z,5.63
2022-11-13T23:38:02.626Z,5.65
2022-11-13T23:40:24.541Z,5.68
2022-11-13T23:42:55.270Z,5.70
2022-11-13T23:45:17.435Z,5.71
2022-11-13T23:47:39.387Z,5.74
2022-11-13T23:50:02.523Z,5.72
2022-11-13T23:52:24.387Z,5.74
2022-11-13T23:54:45.970Z,5.74
2022-11-13T23:57:07.617Z,5.74
2022-11-13T23:59:29.074Z,5.72
